Latest Weather Observations for Edithburgh

IDS60801

Issued at 1:31 pm CDT Tuesday 28 February 2017 (issued every 30 minutes, with the page automatically refreshed every 10 minutes)

About weather observations | Map of weather stations | Latest weather observations for SA | Other Formats
Station Details ID: 022046 Name: EDITHBURGH Lat: -35.11 Lon: 137.74 Height: 6.0 m
Data from the previous 72 hours. | See also: Recent months at Edithburgh
Date/Time
CDT
Temp
°C
App
Temp
°C
Dew
Point
°C
Rel
Hum
%
Delta-T
°C
Wind Press
QNH
hPa
Press
MSL
hPa
Rain since
9am
mm
Dir  Spd
km/h
Gust
km/h
Spd
kts
Gust
kts
28/01:30pm 30.6 27.8 11.2 30 11.2 NE 17 24 9 13 1015.8 1015.8 0.0
28/01:00pm 29.6 26.7 12.3 34 10.1 NE 19 24 10 13 1015.9 1015.9 0.0
28/12:30pm 28.9 26.8 13.6 39 9.1 NE 17 24 9 13 1016.2 1016.2 0.0
28/12:00pm 28.8 26.1 13.0 37 9.3 NE 19 24 10 13 1016.4 1016.4 0.0
28/11:30am 26.5 24.3 14.4 47 7.2 NE 19 26 10 14 1016.7 1016.7 0.0
28/11:00am 26.7 26.3 16.1 52 6.5 NE 13 20 7 11 1017.0 1017.0 0.0
28/10:30am 26.3 26.5 16.8 56 5.9 NNE 11 17 6 9 1017.0 1017.0 0.0
28/10:00am 25.6 25.0 16.7 58 5.5 NE 15 20 8 11 1016.8 1016.8 0.0
28/09:30am 26.1 25.9 15.8 53 6.3 NE 11 19 6 10 1016.7 1016.7 0.0
28/09:00am 25.9 25.5 15.1 51 6.5 NE 11 15 6 8 1016.7 1016.7 0.0
28/08:30am 24.2 24.8 16.7 63 4.6 ENE 9 11 5 6 1016.7 1016.7 0.0
28/08:00am 21.6 23.8 19.6 88 1.3 ESE 7 9 4 5 1016.5 1016.5 0.0
28/07:30am 20.8 22.7 18.9 89 1.2 ESE 7 9 4 5 1016.1 1016.1 0.0
28/07:00am 20.3 21.3 18.7 90 1.0 SE 11 13 6 7 1015.9 1015.9 0.0
28/06:30am 20.2 21.2 18.6 90 1.0 SSE 11 13 6 7 1015.7 1015.7 0.0
28/06:00am 20.2 21.1 18.4 89 1.1 SSE 11 15 6 8 1015.6 1015.6 0.0
28/05:30am 20.4 20.9 18.3 88 1.3 S 13 17 7 9 1015.5 1015.5 0.0
28/05:00am 20.1 20.1 18.2 89 1.2 S 15 19 8 10 1015.3 1015.3 0.0
28/04:30am 19.9 19.5 18.1 89 1.1 S 17 19 9 10 1015.3 1015.3 0.0
28/04:00am 20.1 19.8 18.2 89 1.2 S 17 20 9 11 1015.5 1015.5 0.0
28/03:30am 19.7 19.6 17.9 89 1.1 SSW 15 17 8 9 1015.8 1015.8 0.0
28/03:00am 19.9 19.9 18.0 89 1.2 S 15 19 8 10 1015.8 1015.8 0.0
28/02:30am 19.8 19.4 18.0 89 1.1 S 17 22 9 12 1016.3 1016.3 0.0
28/02:00am 19.8 19.3 17.7 88 1.3 S 17 20 9 11 1016.6 1016.6 0.0
28/01:30am 19.7 18.8 17.7 88 1.2 S 19 24 10 13 1016.8 1016.8 0.0
28/01:00am 19.7 18.8 17.7 88 1.2 S 19 24 10 13 1017.1 1017.1 0.0
28/12:30am 20.1 18.6 17.7 86 1.5 S 22 26 12 14 1017.1 1017.1 0.0
28/12:00am 19.9 18.9 18.0 89 1.2 SSE 20 28 11 15 1017.2 1017.2 0.0
 
Date/Time
CDT
Temp
°C
App
Temp
°C
Dew
Point
°C
Rel
Hum
%
Delta-T
°C
Wind Press
QNH
hPa
Press
MSL
hPa
Rain since
9am
mm
Dir  Spd
km/h
Gust
km/h
Spd
kts
Gust
kts
27/11:30pm 20.1 19.2 17.7 86 1.5 SSE 19 26 10 14 1017.1 1017.1 0.0
27/11:00pm 20.4 19.0 17.1 81 2.0 SSE 20 26 11 14 1017.1 1017.1 0.0
27/10:30pm 19.9 19.4 17.8 88 1.3 S 17 22 9 12 1017.3 1017.3 0.0
27/10:00pm 19.8 19.3 17.8 88 1.2 S 17 28 9 15 1017.2 1017.2 0.0
27/09:30pm 20.1 19.2 17.7 86 1.5 S 19 26 10 14 1017.0 1017.0 0.0
27/09:00pm 20.3 20.3 18.0 87 1.4 S 15 20 8 11 1016.5 1016.5 0.0
27/08:30pm 20.6 20.1 17.7 83 1.8 SSW 17 20 9 11 1016.5 1016.5 0.0
27/08:00pm 20.9 20.0 17.7 82 2.0 SSW 19 24 10 13 1016.2 1016.2 0.0
27/07:30pm 21.7 20.6 17.8 78 2.4 SSW 20 26 11 14 1016.0 1016.0 0.0
27/07:00pm 22.8 21.6 17.6 72 3.2 SSW 20 28 11 15 1016.0 1016.0 0.0
27/06:30pm 23.8 22.8 17.5 68 3.9 SSW 19 28 10 15 1015.9 1015.9 0.0
27/06:00pm 23.4 21.8 17.4 69 3.7 S 22 32 12 17 1015.7 1015.7 0.0
27/05:30pm 24.0 22.4 17.4 66 4.1 S 22 35 12 19 1015.8 1015.8 0.0
27/05:00pm 24.4 22.8 16.6 61 4.8 S 20 30 11 16 1015.7 1015.7 0.0
27/04:30pm 24.8 22.8 16.5 60 5.1 S 22 30 12 16 1015.9 1015.9 0.0
27/04:00pm 25.6 23.7 15.7 54 6.0 S 20 32 11 17 1016.1 1016.1 0.0
27/03:30pm 25.4 23.3 16.3 57 5.6 S 22 28 12 15 1016.4 1016.4 0.0
27/03:00pm 25.4 24.5 17.7 62 4.8 S 19 24 10 13 1016.7 1016.7 0.0
27/02:30pm 24.3 23.2 17.7 66 4.1 SSE 20 26 11 14 1016.9 1016.9 0.0
27/02:00pm 24.2 23.0 17.6 66 4.1 S 20 26 11 14 1017.1 1017.1 0.0
27/01:30pm 24.5 23.5 18.0 67 4.1 S 20 28 11 15 1017.1 1017.1 0.0
27/01:00pm 23.5 22.3 17.5 69 3.7 S 20 26 11 14 1017.4 1017.4 0.0
27/12:30pm 24.9 24.7 17.7 64 4.5 S 15 22 8 12 1017.8 1017.8 0.0
27/12:00pm 24.1 23.8 17.3 65 4.2 S 15 19 8 10 1018.0 1018.0 0.0
27/11:30am 24.6 23.8 16.0 58 5.2 SSW 15 19 8 10 1018.1 1018.1 0.0
27/11:00am 23.6 22.8 15.2 59 5.0 S 13 19 7 10 1018.1 1018.1 0.0
27/10:30am 24.0 23.6 15.3 58 5.2 S 11 17 6 9 1018.3 1018.3 0.0
27/10:00am 22.8 22.3 16.0 65 4.1 SSE 13 15 7 8 1018.3 1018.3 0.0
27/09:30am 21.9 22.0 16.4 71 3.3 SSE 11 15 6 8 1018.2 1018.2 0.0
27/09:00am 21.7 22.1 16.2 71 3.3 SSE 9 11 5 6 1018.3 1018.3 0.0
27/08:30am 20.6 21.6 16.8 79 2.3 SSE 7 11 4 6 1018.3 1018.3 0.0
27/08:00am 18.9 19.9 16.9 88 1.2 SSE 7 9 4 5 1018.3 1018.3 0.0
27/07:30am 16.6 16.9 15.0 90 0.9 ESE 7 7 4 4 1018.3 1018.3 0.0
27/07:00am 16.5 16.9 15.3 93 0.7 E 7 9 4 5 1018.0 1018.0 0.0
27/06:30am 15.8 15.2 14.6 93 0.7 ESE 11 13 6 7 1017.9 1017.9 0.0
27/06:00am 17.1 17.8 15.6 91 0.9 ESE 6 6 3 3 1017.8 1017.8 0.0
27/05:30am 17.0 17.3 14.9 87 1.2 ESE 7 9 4 5 1017.7 1017.7 0.0
27/05:00am 17.4 17.4 15.3 87 1.2 ESE 9 11 5 6 1017.7 1017.7 0.0
27/04:30am 17.6 17.7 15.4 87 1.3 SE 9 13 5 7 1017.7 1017.7 0.0
27/04:00am 17.7 17.4 15.5 87 1.3 SE 11 13 6 7 1017.8 1017.8 0.0
27/03:30am 18.1 17.8 15.5 85 1.5 SE 11 15 6 8 1017.9 1017.9 0.0
27/03:00am 18.1 16.8 15.7 86 1.4 SE 17 20 9 11 1018.1 1018.1 0.0
27/02:30am 18.1 16.0 15.2 83 1.7 SE 20 24 11 13 1018.2 1018.2 0.0
27/02:00am 18.0 15.9 13.6 75 2.5 SE 17 22 9 12 1018.3 1018.3 0.0
27/01:30am 17.5 16.3 14.0 80 2.0 SSE 13 17 7 9 1018.7 1018.7 0.0
27/01:00am 17.4 16.2 13.9 80 2.0 SSE 13 15 7 8 1018.8 1018.8 0.0
27/12:30am 17.5 16.3 14.0 80 2.0 SSE 13 17 7 9 1018.8 1018.8 0.0
27/12:00am 17.6 16.6 14.5 82 1.8 SSE 13 17 7 9 1019.0 1019.0 0.0
 
Date/Time
CDT
Temp
°C
App
Temp
°C
Dew
Point
°C
Rel
Hum
%
Delta-T
°C
Wind Press
QNH
hPa
Press
MSL
hPa
Rain since
9am
mm
Dir  Spd
km/h
Gust
km/h
Spd
kts
Gust
kts
26/11:30pm 17.6 16.1 14.1 80 2.0 SSE 15 20 8 11 1019.0 1019.0 0.0
26/11:00pm 17.9 15.4 14.0 78 2.2 SSE 20 24 11 13 1019.0 1019.0 0.0
26/10:30pm 18.1 15.1 13.7 75 2.5 SSE 22 28 12 15 1019.0 1019.0 0.0
26/10:00pm 18.0 15.2 14.2 78 2.2 SSE 22 30 12 16 1019.2 1019.2 0.0
26/09:30pm 18.1 14.5 14.1 77 2.3 SSE 26 33 14 18 1019.0 1019.0 0.0
26/09:00pm 18.1 14.6 14.4 79 2.1 SSE 26 33 14 18 1018.6 1018.6 0.0
26/08:30pm 18.3 14.4 14.5 78 2.2 SSE 28 33 15 18 1018.3 1018.3 0.0
26/08:00pm 18.6 14.7 13.3 71 3.0 SSE 26 33 14 18 1017.9 1017.9 0.0
26/07:30pm 19.3 15.8 13.5 69 3.3 SSE 24 30 13 16 1017.9 1017.9 0.0
26/07:00pm 20.1 17.4 13.4 65 3.8 S 20 26 11 14 1017.9 1017.9 0.0
26/06:30pm 20.6 17.9 13.4 63 4.1 S 20 26 11 14 1017.9 1017.9 0.0
26/06:00pm 20.7 17.9 13.3 62 4.2 S 20 24 11 13 1017.8 1017.8 0.0
26/05:30pm 21.4 18.5 13.0 58 4.8 S 20 26 11 14 1017.8 1017.8 0.0
26/05:00pm 21.3 18.7 13.3 60 4.6 S 19 24 10 13 1017.8 1017.8 0.0
26/04:30pm 21.6 19.3 13.0 58 4.9 S 17 22 9 12 1017.8 1017.8 0.0
26/04:00pm 20.9 18.9 12.6 59 4.7 SSE 15 19 8 10 1018.1 1018.1 0.0
26/03:30pm 20.7 18.5 12.1 58 4.8 SSE 15 20 8 11 1018.3 1018.3 0.0
26/03:00pm 20.5 18.0 11.2 55 5.1 SE 15 19 8 10 1018.5 1018.5 0.0
26/02:30pm 21.0 18.2 11.4 54 5.3 SSE 17 20 9 11 1018.8 1018.8 0.0
26/02:00pm 20.1 16.9 10.0 52 5.4 SE 17 22 9 12 1019.0 1019.0 0.0
26/01:30pm 20.0 17.1 9.7 51 5.5 SE 15 20 8 11 1019.4 1019.4 0.0
26/01:00pm 19.9 20.7 19.9 100 0.0 SE 15 20 8 11 1019.5 1019.5 0.0
26/12:30pm 19.3 19.8 19.3 100 0.0 SE 15 20 8 11 1019.7 1019.7 0.0
26/12:00pm 19.2 19.7 19.2 100 0.0 SE 15 20 8 11 1020.1 1020.0 0.0
26/11:30am 19.4 20.0 19.4 100 0.0 SSE 15 19 8 10 1020.5 1020.4 0.0
26/11:00am 19.1 19.4 18.8 98 0.2 ESE 15 22 8 12 1020.6 1020.5 0.0
26/10:30am 19.0 19.4 19.0 100 0.0 ESE 15 20 8 11 1020.8 1020.7 0.0
26/10:00am 18.7 18.9 18.5 99 0.1 ESE 15 20 8 11 1021.0 1020.9 0.0
26/09:30am 18.6 18.4 18.6 100 0.0 SE 17 22 9 12 1021.0 1020.9 0.0
26/09:00am 17.9 17.4 17.9 100 0.0 ESE 17 22 9 12 1021.0 1020.9 0.0
26/08:30am 17.7 16.8 17.7 100 0.0 ESE 19 24 10 13 1020.9 1020.8 0.0
26/08:00am 16.8 15.3 16.8 100 0.0 ESE 20 28 11 15 1020.6 1020.5 0.0
26/07:30am 16.2 14.7 16.2 100 0.0 ESE 19 24 10 13 1020.6 1020.5 0.0
26/07:00am 16.1 14.3 16.1 100 0.0 SE 20 28 11 15 1020.3 1020.2 0.0
26/06:30am 15.9 14.6 15.9 100 0.0 ESE 17 24 9 13 1020.2 1020.1 0.0
26/06:00am 16.3 14.8 16.3 100 0.0 ESE 19 28 10 15 1020.1 1020.0 0.0
26/05:30am 16.3 14.6 16.3 100 0.0 SE 20 26 11 14 1019.6 1019.6 0.0
26/05:00am 16.3 14.8 16.3 100 0.0 SE 19 30 10 16 1020.0 1019.9 0.0
26/04:30am 16.5 15.1 16.5 100 0.0 SE 19 28 10 15 1019.9 1019.8 0.0
26/04:00am 16.6 15.2 16.6 100 0.0 SE 19 24 10 13 1020.2 1020.1 0.0
26/03:30am 16.6 14.7 16.6 100 0.0 ESE 22 33 12 18 1020.3 1020.2 0.0
26/03:00am 16.6 13.9 16.6 100 0.0 SE 26 33 14 18 1020.4 1020.3 0.0
26/02:30am 16.7 14.8 16.7 100 0.0 SE 22 32 12 17 1020.9 1020.8 0.0
26/02:00am 16.8 14.9 16.8 100 0.0 SE 22 30 12 16 1020.9 1020.8 0.0
26/01:30am 16.7 14.4 16.7 100 0.0 SE 24 32 13 17 1021.2 1021.1 0.0
26/01:00am 16.6 14.3 16.6 100 0.0 SE 24 33 13 18 1021.5 1021.4 0.0
26/12:30am 16.6 13.9 16.6 100 0.0 SE 26 33 14 18 1021.6 1021.5 0.0
26/12:00am 16.7 14.0 16.7 100 0.0 SE 26 33 14 18 1022.0 1021.9 0.0
 
Date/Time
CDT
Temp
°C
App
Temp
°C
Dew
Point
°C
Rel
Hum
%
Delta-T
°C
Wind Press
QNH
hPa
Press
MSL
hPa
Rain since
9am
mm
Dir  Spd
km/h
Gust
km/h
Spd
kts
Gust
kts
25/11:30pm 16.8 14.6 16.8 100 0.0 SE 24 32 13 17 1022.3 1022.2 0.0
25/11:00pm 16.8 13.8 16.8 100 0.0 SE 28 35 15 19 1022.4 1022.3 0.0
25/10:30pm 16.6 13.5 16.6 100 0.0 SE 28 35 15 19 1022.6 1022.5 0.0
25/10:00pm 16.8 13.4 16.8 100 0.0 SSE 30 39 16 21 1022.7 1022.6 0.0
25/09:30pm 16.9 13.2 16.9 100 0.0 SSE 32 41 17 22 1022.7 1022.6 0.0
25/09:00pm 17.0 13.6 16.8 99 0.1 SSE 30 41 16 22 1022.8 1022.7 0.0
25/08:30pm 17.1 11.5 12.2 73 2.7 SSE 33 43 18 23 1022.7 1022.6 0.0
25/08:00pm 17.1 11.6 10.5 65 3.5 SSE 30 43 16 23 1022.6 1022.5 0.0
25/07:30pm 17.5 11.8 11.2 66 3.4 SSE 32 39 17 21 1022.5 1022.4 0.0
25/07:00pm 18.3 13.0 11.1 63 3.9 SSE 30 39 16 21 1022.6 1022.5 0.0
25/06:30pm 18.8 14.3 11.5 62 4.0 SSE 26 35 14 19 1022.4 1022.3 0.0
25/06:00pm 19.3 13.9 11.0 58 4.5 SSE 30 39 16 21 1022.6 1022.5 0.0
25/05:30pm 19.4 13.1 8.8 50 5.5 SSE 32 41 17 22 1022.7 1022.6 0.0
25/05:00pm 19.7 14.1 10.2 54 5.1 SSE 30 37 16 20 1023.0 1022.9 0.0
25/04:30pm 20.3 15.3 10.9 54 5.1 SE 28 35 15 19 1023.0 1022.9 0.0
25/04:00pm 20.4 15.5 11.3 56 5.0 SSE 28 33 15 18 1023.2 1023.1 0.0
25/03:30pm 20.4 15.4 9.5 49 5.8 SE 26 32 14 17 1023.5 1023.4 0.0
25/03:00pm 20.9 15.9 9.7 48 6.0 SSE 26 35 14 19 1023.9 1023.8 0.0
25/02:30pm 20.9 16.4 10.1 50 5.8 SE 24 32 13 17 1024.3 1024.2 0.0
25/02:00pm 20.6 16.8 9.7 49 5.8 SE 20 28 11 15 1024.6 1024.5 0.0

Other Formats:

Comma delimited format used in spreadsheet applications
http://www.bom.gov.au/fwo/IDS60801/IDS60801.94809.axf

JavaScript Object Notation format (JSON) in row-major order
http://www.bom.gov.au/fwo/IDS60801/IDS60801.94809.json